Haskins, Ohio
Current Conditions -  °F | °C
As of 1:52 PM on Friday 31 Oct 2014 (Local Time) from KTOL Reporting Station
Light Rain Light Rain  
Wind Chill: 37°   Ceiling: 1000
Heat Index: 42°   Visibility: 10mi
Dew Point: 39°   Wind: 9mph
Humidity: 89%   Direction: 320°NW
Pressure: 29.88"   Gusts: NA
Location:  41.46°N, 83.71°W
Report Text: KTOL 311752Z 32008KT 10SM -RA BKN010 BKN018 OVC060 06/04 A2988 RMK AO2 SLP121 P0000 60008 T00560039 10061 20050 58004
Loading
Personal Weather Stations






























Interactive Weather Map New forecast layout! Learn more

10-Day Weather Forecast

Advertisements
Track Severe Weather on mobile